createdAt,value
2018-05-12T00:00:50.323Z,33.0
2018-05-12T00:02:50.422Z,35.3
2018-05-12T00:04:49.842Z,34.3
2018-05-12T00:06:50.048Z,34.3
2018-05-12T00:08:50.234Z,35.2
2018-05-12T00:10:50.352Z,35.7
2018-05-12T00:12:49.610Z,36.4
2018-05-12T00:14:49.854Z,38.2
2018-05-12T00:16:50.178Z,38.2
2018-05-12T00:18:50.429Z,36.6
2018-05-12T00:20:49.811Z,36.5
2018-05-12T00:22:50.043Z,36.3
2018-05-12T00:24:50.279Z,35.5
2018-05-12T00:26:49.638Z,35.5
2018-05-12T00:28:49.922Z,38.1
2018-05-12T00:30:50.242Z,40.0
2018-05-12T00:32:49.464Z,40.0
2018-05-12T00:34:49.881Z,41.4
2018-05-12T00:36:50.159Z,41.4
2018-05-12T00:38:50.351Z,43.3
2018-05-12T00:40:49.573Z,41.7
2018-05-12T00:42:49.880Z,44.8
2018-05-12T00:44:49.597Z,45.3
2018-05-12T00:46:50.024Z,45.3
2018-05-12T00:48:50.215Z,48.2
2018-05-12T00:50:50.424Z,43.6
2018-05-12T00:52:49.561Z,43.8
2018-05-12T00:54:49.701Z,46.4
2018-05-12T00:56:50.167Z,46.4
2018-05-12T00:58:50.436Z,43.2
2018-05-12T01:00:49.620Z,44.0
2018-05-12T01:02:49.766Z,45.4
2018-05-12T01:04:50.117Z,46.8
2018-05-12T01:06:50.338Z,46.8
2018-05-12T01:08:49.482Z,46.2
2018-05-12T01:10:49.650Z,46.0
2018-05-12T01:12:49.823Z,51.4
2018-05-12T01:14:50.030Z,50.0
2018-05-12T01:16:50.417Z,50.0
2018-05-12T01:18:49.570Z,48.7
2018-05-12T01:20:49.706Z,42.6
2018-05-12T01:22:49.836Z,42.5
2018-05-12T01:24:50.033Z,40.3
2018-05-12T01:26:50.231Z,40.3
2018-05-12T01:28:50.394Z,40.1
2018-05-12T01:30:49.534Z,49.4
2018-05-12T01:32:49.775Z,48.3
2018-05-12T01:34:50.162Z,48.3
2018-05-12T01:36:49.489Z,45.5
2018-05-12T01:38:49.714Z,42.8
2018-05-12T01:40:49.933Z,41.8
2018-05-12T01:42:50.102Z,40.2
2018-05-12T01:44:50.266Z,40.2
2018-05-12T01:46:49.580Z,39.2
2018-05-12T01:48:49.780Z,35.9
2018-05-12T01:50:49.927Z,35.6
2018-05-12T01:52:50.246Z,35.0
2018-05-12T01:54:49.532Z,35.0
2018-05-12T01:56:49.781Z,34.9
2018-05-12T01:58:49.897Z,34.5
2018-05-12T02:00:50.120Z,35.1
2018-05-12T02:02:50.294Z,35.1
2018-05-12T02:04:49.901Z,36.2
2018-05-12T02:06:50.219Z,33.3
2018-05-12T02:08:50.070Z,35.8
2018-05-12T02:10:50.251Z,35.8
2018-05-12T02:12:49.618Z,31.6
2018-05-12T02:14:49.786Z,34.4
2018-05-12T02:16:50.122Z,35.4
2018-05-12T02:18:50.386Z,35.9
2018-05-12T02:20:49.596Z,34.9
2018-05-12T02:22:49.939Z,34.3
2018-05-12T02:24:50.113Z,34.3
2018-05-12T02:26:49.467Z,31.1
2018-05-12T02:28:49.695Z,33.1
2018-05-12T02:30:49.918Z,35.7
2018-05-12T02:32:50.139Z,35.7
2018-05-12T02:34:49.511Z,37.5
2018-05-12T02:36:49.860Z,35.9
2018-05-12T02:38:50.095Z,33.2
2018-05-12T02:40:50.393Z,33.2
2018-05-12T02:42:49.639Z,33.6
2018-05-12T02:44:49.866Z,32.5
2018-05-12T02:46:50.245Z,37.5
2018-05-12T02:48:49.505Z,35.3
2018-05-12T02:50:49.643Z,37.8
2018-05-12T02:52:49.805Z,37.8
2018-05-12T02:54:49.997Z,38.5
2018-05-12T02:56:50.287Z,34.1
2018-05-12T02:58:49.455Z,34.1
2018-05-12T03:00:49.634Z,36.9
2018-05-12T03:02:49.948Z,38.8
2018-05-12T03:04:49.495Z,38.8
2018-05-12T03:06:49.787Z,36.1
2018-05-12T03:08:49.994Z,35.0
2018-05-12T03:10:50.180Z,35.0
2018-05-12T03:12:50.439Z,33.1
2018-05-12T03:14:49.643Z,35.1
2018-05-12T03:16:49.927Z,33.7
2018-05-12T03:18:50.130Z,36.3
2018-05-12T03:20:50.225Z,34.0
2018-05-12T03:22:50.382Z,34.0
2018-05-12T03:24:49.536Z,33.2
2018-05-12T03:26:49.896Z,34.8
2018-05-12T03:28:50.066Z,36.6
2018-05-12T03:30:50.230Z,36.6
2018-05-12T03:32:50.391Z,33.4
2018-05-12T03:34:49.887Z,34.7
2018-05-12T03:36:50.202Z,35.1
2018-05-12T03:38:50.422Z,35.7
2018-05-12T03:40:49.597Z,35.7
2018-05-12T03:42:49.751Z,36.7
2018-05-12T03:44:49.940Z,36.1
2018-05-12T03:46:50.204Z,36.1
2018-05-12T03:48:50.389Z,34.2
2018-05-12T03:50:49.540Z,35.9
2018-05-12T03:52:49.640Z,35.8
2018-05-12T03:54:49.785Z,35.8
2018-05-12T03:56:50.060Z,34.7
2018-05-12T03:58:50.190Z,34.7
2018-05-12T04:00:50.316Z,33.9
2018-05-12T04:02:50.406Z,34.2
2018-05-12T04:04:49.726Z,38.4
2018-05-12T04:06:49.599Z,40.0
2018-05-12T04:08:49.796Z,36.1
2018-05-12T04:10:49.974Z,36.1
2018-05-12T04:12:49.772Z,34.5
2018-05-12T04:14:50.052Z,35.2
2018-05-12T04:16:50.361Z,37.4
2018-05-12T04:18:49.464Z,37.4
2018-05-12T04:20:49.749Z,34.7
2018-05-12T04:22:50.008Z,35.8
2018-05-12T04:24:50.257Z,36.2
2018-05-12T04:26:50.059Z,36.5
2018-05-12T04:28:50.307Z,36.5
2018-05-12T04:30:49.534Z,35.2
2018-05-12T04:32:49.686Z,36.9
2018-05-12T04:34:50.015Z,37.9
2018-05-12T04:36:50.278Z,35.4
2018-05-12T04:38:50.399Z,35.4
2018-05-12T04:40:49.516Z,34.1
2018-05-12T04:42:49.778Z,33.8
2018-05-12T04:44:50.024Z,33.8
2018-05-12T04:46:50.350Z,33.8
2018-05-12T04:48:49.724Z,33.4
2018-05-12T04:50:49.985Z,33.4
2018-05-12T04:52:50.323Z,32.6
2018-05-12T04:54:49.459Z,32.8
2018-05-12T04:56:49.707Z,32.8
2018-05-12T04:58:49.837Z,30.7
2018-05-12T05:00:49.947Z,30.7
2018-05-12T05:02:50.107Z,31.2
2018-05-12T05:04:49.508Z,31.2
2018-05-12T05:06:49.713Z,30.7
2018-05-12T05:08:49.851Z,30.3
2018-05-12T05:10:50.061Z,30.9
2018-05-12T05:12:50.175Z,31.2
2018-05-12T05:14:50.342Z,30.8
2018-05-12T05:16:49.672Z,30.8
2018-05-12T05:18:49.844Z,30.8
2018-05-12T05:20:50.035Z,32.0
2018-05-12T05:22:50.202Z,32.7
2018-05-12T05:24:49.510Z,32.8
2018-05-12T05:26:49.855Z,32.8
2018-05-12T05:28:50.062Z,29.5
2018-05-12T05:30:50.335Z,28.9
2018-05-12T05:32:49.677Z,29.7
2018-05-12T05:34:50.223Z,29.1
2018-05-12T05:36:50.080Z,29.1
2018-05-12T05:38:50.277Z,31.5
2018-05-12T05:40:49.458Z,30.8
2018-05-12T05:42:49.609Z,30.9
2018-05-12T05:44:49.856Z,30.8
2018-05-12T05:46:50.194Z,30.8
2018-05-12T05:48:49.464Z,30.0
2018-05-12T05:50:49.609Z,30.2
2018-05-12T05:52:49.742Z,30.1
2018-05-12T05:54:49.951Z,30.1
2018-05-12T05:56:50.229Z,29.7
2018-05-12T05:58:50.294Z,31.0
2018-05-12T06:00:50.415Z,37.6
2018-05-12T06:02:49.524Z,30.7
2018-05-12T06:04:49.830Z,30.7
2018-05-12T06:06:50.144Z,30.2
2018-05-12T06:08:49.618Z,29.8
2018-05-12T06:10:49.814Z,30.6
2018-05-12T06:12:50.022Z,30.6
2018-05-12T06:14:50.199Z,30.9
2018-05-12T06:16:49.573Z,30.4
2018-05-12T06:18:49.873Z,30.2
2018-05-12T06:20:50.073Z,30.1
2018-05-12T06:22:50.235Z,30.1
2018-05-12T06:24:49.457Z,30.6
2018-05-12T06:26:49.804Z,30.6
2018-05-12T06:28:50.010Z,31.5
2018-05-12T06:30:50.177Z,28.0
2018-05-12T06:32:50.366Z,28.0
2018-05-12T06:34:49.824Z,28.3
2018-05-12T06:36:50.083Z,28.0
2018-05-12T06:38:50.258Z,27.2
2018-05-12T06:40:50.403Z,26.9
2018-05-12T06:42:49.645Z,26.9
2018-05-12T06:44:50.045Z,27.1
2018-05-12T06:46:49.468Z,27.4
2018-05-12T06:48:49.605Z,27.5
2018-05-12T06:50:49.949Z,27.5
2018-05-12T06:52:50.092Z,27.7
2018-05-12T06:54:49.679Z,27.2
2018-05-12T06:56:49.887Z,27.3
2018-05-12T06:58:50.024Z,28.3
2018-05-12T07:00:50.106Z,28.3
2018-05-12T07:02:50.207Z,27.2
2018-05-12T07:04:49.616Z,25.8
2018-05-12T07:06:49.869Z,27.9
2018-05-12T07:08:50.046Z,26.3
2018-05-12T07:10:50.297Z,26.6
2018-05-12T07:12:49.497Z,26.6
2018-05-12T07:14:49.758Z,27.0
2018-05-12T07:16:50.037Z,27.1
2018-05-12T07:18:50.250Z,26.2
2018-05-12T07:20:50.436Z,26.2
2018-05-12T07:22:49.663Z,26.6
2018-05-12T07:24:49.815Z,25.8
2018-05-12T07:26:50.037Z,25.6
2018-05-12T07:28:50.160Z,26.1
2018-05-12T07:30:50.289Z,26.1
2018-05-12T07:32:50.419Z,25.3
2018-05-12T07:34:49.736Z,25.7
2018-05-12T07:36:49.950Z,25.7
2018-05-12T07:38:50.174Z,25.8
2018-05-12T07:40:50.256Z,25.1
2018-05-12T07:42:49.523Z,24.1
2018-05-12T07:44:49.695Z,25.7
2018-05-12T07:46:50.016Z,26.2
2018-05-12T07:48:50.217Z,26.2
2018-05-12T07:50:50.325Z,26.4
2018-05-12T07:52:49.551Z,26.4
2018-05-12T07:54:49.665Z,26.2
2018-05-12T07:56:49.875Z,26.7
2018-05-12T07:58:50.406Z,26.7
2018-05-12T08:00:49.517Z,26.3
2018-05-12T08:02:49.672Z,26.0
2018-05-12T08:04:50.171Z,25.3
2018-05-12T08:06:49.707Z,25.0
2018-05-12T08:08:50.116Z,25.0
2018-05-12T08:10:49.541Z,25.5
2018-05-12T08:12:50.078Z,25.8
2018-05-12T08:14:50.151Z,25.4
2018-05-12T08:16:49.658Z,25.9
2018-05-12T08:18:49.814Z,25.9
2018-05-12T08:20:49.979Z,25.9
2018-05-12T08:22:50.121Z,25.9
2018-05-12T08:24:50.249Z,26.2
2018-05-12T08:26:49.638Z,25.2
2018-05-12T08:28:50.026Z,25.2
2018-05-12T08:30:50.180Z,25.6
2018-05-12T08:32:50.328Z,23.5
2018-05-12T08:34:49.583Z,23.7
2018-05-12T08:36:49.784Z,23.7
2018-05-12T08:38:49.992Z,22.2
2018-05-12T08:40:50.178Z,22.1
2018-05-12T08:42:50.321Z,22.1
2018-05-12T08:44:49.497Z,21.6
2018-05-12T08:46:49.680Z,21.8
2018-05-12T08:48:49.933Z,21.8
2018-05-12T08:50:50.177Z,22.1
2018-05-12T08:52:50.325Z,21.8
2018-05-12T08:54:50.439Z,21.7
2018-05-12T08:56:49.821Z,21.7
2018-05-12T08:58:50.212Z,21.2
2018-05-12T09:00:50.393Z,20.9
2018-05-12T09:02:49.659Z,20.3
2018-05-12T09:04:50.018Z,20.0
2018-05-12T09:06:50.392Z,20.0
2018-05-12T09:08:49.544Z,20.0
2018-05-12T09:10:49.689Z,19.5
2018-05-12T09:12:49.849Z,20.5
2018-05-12T09:14:50.052Z,21.0
2018-05-12T09:16:50.392Z,21.0
2018-05-12T09:18:49.610Z,20.3
2018-05-12T09:20:49.771Z,19.2
2018-05-12T09:22:50.073Z,19.2
2018-05-12T09:24:50.289Z,19.2
2018-05-12T09:26:49.596Z,19.1
2018-05-12T09:28:49.827Z,18.7
2018-05-12T09:30:50.052Z,18.4
2018-05-12T09:32:50.208Z,18.5
2018-05-12T09:34:49.710Z,19.5
2018-05-12T09:36:50.022Z,19.5
2018-05-12T09:38:50.187Z,19.3
2018-05-12T09:40:50.384Z,19.5
2018-05-12T09:42:49.619Z,19.2
2018-05-12T09:44:49.904Z,18.0
2018-05-12T09:46:49.500Z,18.0
2018-05-12T09:48:49.844Z,18.8
2018-05-12T09:50:50.076Z,18.7
2018-05-12T09:52:50.274Z,17.9
2018-05-12T09:54:49.510Z,17.9
2018-05-12T09:56:49.744Z,18.5
2018-05-12T09:58:49.965Z,17.7
2018-05-12T10:00:50.166Z,17.0
2018-05-12T10:02:50.400Z,16.7
2018-05-12T10:04:49.791Z,16.7
2018-05-12T10:06:50.074Z,16.5
2018-05-12T10:08:50.246Z,16.5
2018-05-12T10:10:50.415Z,16.2
2018-05-12T10:12:49.827Z,14.9
2018-05-12T10:14:50.356Z,14.9
2018-05-12T10:16:49.760Z,14.7
2018-05-12T10:18:50.141Z,15.3
2018-05-12T10:20:50.350Z,15.5
2018-05-12T10:22:49.690Z,15.1
2018-05-12T10:24:50.100Z,15.1
2018-05-12T10:26:50.416Z,14.2
2018-05-12T10:28:49.773Z,14.1
2018-05-12T10:30:50.104Z,14.3
2018-05-12T10:32:50.346Z,13.3
2018-05-12T10:34:49.684Z,13.3
2018-05-12T10:36:50.055Z,12.3
2018-05-12T10:38:50.259Z,11.3
2018-05-12T10:40:49.550Z,11.3
2018-05-12T10:42:49.705Z,11.3
2018-05-12T10:44:49.831Z,10.9
2018-05-12T10:46:49.475Z,10.3
2018-05-12T10:48:49.647Z,10.1
2018-05-12T10:50:49.782Z,10.4
2018-05-12T10:52:49.930Z,10.4
2018-05-12T10:54:50.085Z,10.0
2018-05-12T10:56:49.444Z,9.4
2018-05-12T10:58:49.630Z,10.3
2018-05-12T11:00:49.879Z,10.0
2018-05-12T11:02:50.169Z,10.0
2018-05-12T11:04:49.470Z,10.0
2018-05-12T11:06:49.698Z,9.1
2018-05-12T11:08:49.856Z,9.6
2018-05-12T11:10:49.997Z,9.6
2018-05-12T11:12:50.119Z,9.5
2018-05-12T11:14:50.283Z,8.3
2018-05-12T11:16:49.605Z,7.9
2018-05-12T11:18:49.756Z,7.3
2018-05-12T11:20:49.955Z,7.3
2018-05-12T11:22:50.204Z,7.4
2018-05-12T11:24:50.378Z,7.5
2018-05-12T11:26:49.678Z,6.9
2018-05-12T11:28:49.846Z,8.4
2018-05-12T11:30:50.031Z,8.4
2018-05-12T11:32:50.136Z,8.8
2018-05-12T11:34:49.497Z,8.5
2018-05-12T11:36:49.765Z,8.5
2018-05-12T11:38:50.034Z,8.4
2018-05-12T11:40:49.624Z,8.3
2018-05-12T11:42:49.757Z,6.8
2018-05-12T11:44:50.091Z,6.7
2018-05-12T11:46:50.426Z,6.7
2018-05-12T11:48:49.644Z,7.7
2018-05-12T11:50:49.847Z,7.7
2018-05-12T11:52:50.065Z,7.3
2018-05-12T11:54:50.334Z,6.9
2018-05-12T11:56:49.751Z,6.8
2018-05-12T11:58:50.055Z,6.4
2018-05-12T12:00:50.261Z,6.4
2018-05-12T12:02:49.501Z,6.4
2018-05-12T12:04:49.860Z,6.8
2018-05-12T12:06:50.359Z,6.8
2018-05-12T12:08:49.539Z,7.2
2018-05-12T12:10:49.696Z,7.5
2018-05-12T12:12:49.825Z,6.2
2018-05-12T12:14:50.020Z,6.5
2018-05-12T12:16:50.453Z,6.6
2018-05-12T12:18:49.630Z,6.4
2018-05-12T12:20:49.816Z,6.4
2018-05-12T12:22:49.985Z,6.5
2018-05-12T12:24:50.119Z,6.6
2018-05-12T12:26:50.425Z,6.4
2018-05-12T12:28:49.607Z,6.3
2018-05-12T12:30:49.773Z,6.3
2018-05-12T12:32:49.946Z,6.3
2018-05-12T12:34:50.272Z,6.5
2018-05-12T12:36:49.467Z,6.5
2018-05-12T12:38:49.605Z,5.6
2018-05-12T12:40:49.772Z,6.2
2018-05-12T12:42:49.894Z,5.9
2018-05-12T12:44:50.075Z,5.9
2018-05-12T12:46:50.417Z,5.4
2018-05-12T12:48:49.734Z,5.5
2018-05-12T12:50:49.969Z,5.5
2018-05-12T12:52:50.158Z,5.3
2018-05-12T12:54:50.296Z,5.6
2018-05-12T12:56:49.659Z,5.4
2018-05-12T12:58:50.013Z,5.4
2018-05-12T13:00:50.344Z,5.5
2018-05-12T13:02:49.473Z,5.5
2018-05-12T13:04:50.143Z,5.1
2018-05-12T13:06:50.119Z,5.1
2018-05-12T13:08:50.425Z,5.4
2018-05-12T13:10:49.861Z,5.4
2018-05-12T13:12:49.996Z,5.5
2018-05-12T13:14:50.261Z,5.9
2018-05-12T13:16:49.520Z,5.9
2018-05-12T13:18:49.758Z,5.5
2018-05-12T13:20:49.948Z,5.7
2018-05-12T13:22:50.022Z,5.3
2018-05-12T13:24:50.199Z,5.0
2018-05-12T13:26:50.369Z,5.0
2018-05-12T13:28:49.563Z,5.6
2018-05-12T13:30:49.762Z,6.0
2018-05-12T13:32:50.054Z,6.0
2018-05-12T13:34:50.420Z,5.2
2018-05-12T13:36:49.737Z,5.2
2018-05-12T13:38:50.077Z,6.1
2018-05-12T13:40:50.343Z,5.4
2018-05-12T13:42:49.529Z,5.6
2018-05-12T13:44:49.728Z,5.6
2018-05-12T13:46:50.042Z,5.7
2018-05-12T13:48:49.482Z,5.7
2018-05-12T13:50:49.714Z,5.3
2018-05-12T13:52:50.180Z,5.3
2018-05-12T13:54:50.391Z,5.4
2018-05-12T13:56:49.719Z,5.4
2018-05-12T13:58:50.286Z,5.3
2018-05-12T14:00:49.583Z,5.3
2018-05-12T14:02:49.789Z,5.3
2018-05-12T14:04:50.282Z,5.1
2018-05-12T14:06:49.662Z,5.5
2018-05-12T14:08:49.918Z,5.2
2018-05-12T14:10:50.260Z,5.3
2018-05-12T14:12:49.564Z,4.9
2018-05-12T14:14:49.881Z,4.9
2018-05-12T14:16:50.317Z,5.1
2018-05-12T14:18:49.581Z,5.1
2018-05-12T14:20:49.908Z,5.1
2018-05-12T14:22:50.298Z,5.1
2018-05-12T14:24:49.628Z,5.1
2018-05-12T14:26:49.996Z,4.3
2018-05-12T14:28:50.200Z,4.7
2018-05-12T14:30:50.431Z,4.3
2018-05-12T14:32:49.846Z,4.3
2018-05-12T14:34:50.397Z,3.7
2018-05-12T14:36:49.648Z,3.4
2018-05-12T14:38:49.807Z,4.1
2018-05-12T14:40:50.028Z,4.0
2018-05-12T14:42:50.373Z,4.0
2018-05-12T14:44:49.958Z,3.8
2018-05-12T14:46:50.260Z,3.8
2018-05-12T14:48:50.423Z,4.1
2018-05-12T14:50:49.590Z,3.9
2018-05-12T14:52:49.815Z,3.9
2018-05-12T14:54:49.962Z,4.1
2018-05-12T14:56:50.310Z,4.1
2018-05-12T14:58:49.533Z,3.9
2018-05-12T15:00:49.757Z,4.0
2018-05-12T15:02:49.870Z,4.0
2018-05-12T15:04:50.108Z,3.6
2018-05-12T15:06:49.545Z,3.7
2018-05-12T15:08:49.766Z,3.7
2018-05-12T15:10:49.898Z,3.6
2018-05-12T15:12:50.042Z,3.6
2018-05-12T15:14:50.311Z,3.9
2018-05-12T15:16:50.093Z,3.9
2018-05-12T15:18:50.383Z,3.7
2018-05-12T15:20:49.624Z,3.6
2018-05-12T15:22:50.103Z,3.6
2018-05-12T15:24:50.293Z,3.3
2018-05-12T15:26:49.701Z,4.4
2018-05-12T15:28:49.843Z,3.5
2018-05-12T15:30:50.006Z,3.7
2018-05-12T15:32:50.126Z,3.7
2018-05-12T15:34:49.660Z,3.4
2018-05-12T15:36:49.995Z,4.0
2018-05-12T15:38:50.157Z,3.8
2018-05-12T15:40:50.312Z,3.8
2018-05-12T15:42:49.639Z,3.6
2018-05-12T15:44:49.890Z,3.7
2018-05-12T15:46:50.095Z,3.8
2018-05-12T15:48:50.261Z,3.9
2018-05-12T15:50:50.427Z,3.9
2018-05-12T15:52:49.567Z,3.7
2018-05-12T15:54:49.729Z,3.7
2018-05-12T15:56:50.020Z,4.1
2018-05-12T15:58:50.167Z,3.8
2018-05-12T16:00:50.389Z,3.8
2018-05-12T16:02:49.526Z,4.0
2018-05-12T16:04:49.867Z,3.8
2018-05-12T16:06:50.201Z,3.8
2018-05-12T16:08:50.280Z,3.5
2018-05-12T16:10:50.384Z,3.5
2018-05-12T16:12:49.536Z,4.8
2018-05-12T16:14:49.695Z,4.5
2018-05-12T16:16:49.991Z,4.6
2018-05-12T16:18:50.223Z,7.6
2018-05-12T16:20:50.394Z,7.6
2018-05-12T16:22:49.547Z,5.7
2018-05-12T16:24:49.745Z,5.1
2018-05-12T16:26:50.123Z,5.4
2018-05-12T16:28:50.260Z,5.4
2018-05-12T16:30:49.549Z,5.4
2018-05-12T16:32:49.783Z,6.3
2018-05-12T16:34:50.375Z,5.7
2018-05-12T16:36:49.748Z,6.6
2018-05-12T16:38:50.000Z,6.0
2018-05-12T16:40:50.191Z,6.0
2018-05-12T16:42:50.367Z,5.6
2018-05-12T16:44:49.507Z,5.6
2018-05-12T16:46:49.753Z,5.4
2018-05-12T16:48:49.940Z,5.4
2018-05-12T16:50:50.202Z,5.5
2018-05-12T16:52:50.013Z,5.6
2018-05-12T16:54:50.199Z,9.8
2018-05-12T16:56:49.520Z,5.6
2018-05-12T16:58:49.668Z,5.6
2018-05-12T17:00:50.008Z,5.6
2018-05-12T17:02:50.215Z,5.6
2018-05-12T17:04:49.513Z,9.4
2018-05-12T17:06:49.851Z,6.5
2018-05-12T17:08:49.997Z,6.5
2018-05-12T17:10:50.154Z,5.7
2018-05-12T17:12:50.304Z,9.0
2018-05-12T17:14:50.377Z,5.6
2018-05-12T17:16:49.715Z,5.6
2018-05-12T17:18:49.857Z,5.8
2018-05-12T17:20:50.092Z,5.4
2018-05-12T17:22:50.196Z,5.5
2018-05-12T17:24:50.405Z,5.2
2018-05-12T17:26:49.791Z,5.2
2018-05-12T17:28:50.036Z,6.2
2018-05-12T17:30:50.215Z,5.4
2018-05-12T17:32:49.568Z,8.0
2018-05-12T17:34:50.118Z,5.4
2018-05-12T17:36:50.385Z,5.4
2018-05-12T17:38:49.581Z,5.9
2018-05-12T17:40:49.839Z,6.1
2018-05-12T17:42:50.142Z,6.3
2018-05-12T17:44:50.362Z,6.3
2018-05-12T17:46:49.626Z,6.5
2018-05-12T17:48:49.854Z,6.5
2018-05-12T17:50:50.088Z,7.3
2018-05-12T17:52:50.384Z,7.3
2018-05-12T17:54:49.560Z,7.3
2018-05-12T17:56:49.825Z,7.0
2018-05-12T17:58:49.938Z,6.6
2018-05-12T18:00:50.088Z,7.0
2018-05-12T18:02:50.252Z,7.0
2018-05-12T18:04:49.628Z,8.8
2018-05-12T18:06:49.917Z,8.8
2018-05-12T18:08:50.083Z,6.8
2018-05-12T18:10:50.366Z,7.1
2018-05-12T18:12:49.656Z,7.8
2018-05-12T18:14:49.866Z,7.7
2018-05-12T18:16:50.138Z,7.7
2018-05-12T18:18:50.416Z,7.0
2018-05-12T18:20:49.666Z,7.2
2018-05-12T18:22:49.919Z,7.1
2018-05-12T18:24:50.166Z,7.1
2018-05-12T18:26:49.550Z,7.1
2018-05-12T18:28:50.437Z,10.0
2018-05-12T18:30:49.607Z,6.9
2018-05-12T18:32:49.736Z,6.9
2018-05-12T18:34:50.215Z,6.9
2018-05-12T18:36:49.517Z,6.8
2018-05-12T18:38:49.660Z,7.6
2018-05-12T18:40:49.977Z,7.1
2018-05-12T18:42:50.307Z,7.1
2018-05-12T18:44:49.463Z,7.6
2018-05-12T18:46:49.719Z,8.1
2018-05-12T18:48:49.868Z,8.5
2018-05-12T18:50:50.034Z,8.7
2018-05-12T18:52:50.178Z,8.7
2018-05-12T18:54:50.410Z,8.4
2018-05-12T18:56:49.601Z,8.5
2018-05-12T18:58:49.802Z,15.8
2018-05-12T19:00:50.088Z,15.8
2018-05-12T19:02:50.417Z,14.8
2018-05-12T19:04:49.879Z,8.8
2018-05-12T19:06:49.515Z,9.0
2018-05-12T19:08:49.887Z,8.8
2018-05-12T19:10:50.348Z,8.3
2018-05-12T19:12:49.685Z,8.3
2018-05-12T19:14:50.042Z,7.8
2018-05-12T19:16:50.359Z,9.6
2018-05-12T19:18:49.487Z,8.5
2018-05-12T19:20:49.676Z,8.9
2018-05-12T19:22:49.869Z,8.9
2018-05-12T19:24:50.040Z,8.0
2018-05-12T19:26:50.305Z,7.5
2018-05-12T19:28:49.533Z,7.6
2018-05-12T19:30:49.689Z,8.2
2018-05-12T19:32:49.867Z,8.2
2018-05-12T19:34:50.080Z,8.5
2018-05-12T19:36:50.377Z,8.5
2018-05-12T19:38:49.519Z,8.3
2018-05-12T19:40:49.663Z,9.0
2018-05-12T19:42:49.889Z,9.0
2018-05-12T19:44:50.077Z,8.3
2018-05-12T19:46:49.472Z,8.8
2018-05-12T19:48:49.750Z,9.0
2018-05-12T19:50:50.017Z,9.0
2018-05-12T19:52:50.225Z,9.2
2018-05-12T19:54:49.467Z,9.5
2018-05-12T19:56:49.887Z,9.5
2018-05-12T19:58:49.473Z,10.2
2018-05-12T20:00:49.682Z,10.2
2018-05-12T20:02:49.944Z,10.1
2018-05-12T20:04:50.426Z,10.2
2018-05-12T20:06:49.717Z,9.7
2018-05-12T20:08:49.844Z,10.5
2018-05-12T20:10:50.055Z,10.5
2018-05-12T20:12:50.305Z,9.2
2018-05-12T20:14:49.434Z,9.8
2018-05-12T20:16:49.648Z,9.4
2018-05-12T20:18:49.877Z,9.4
2018-05-12T20:20:50.048Z,8.5
2018-05-12T20:22:50.237Z,8.5
2018-05-12T20:24:50.413Z,9.0
2018-05-12T20:26:49.811Z,8.8
2018-05-12T20:28:49.968Z,9.0
2018-05-12T20:30:50.163Z,9.0
2018-05-12T20:32:50.306Z,9.2
2018-05-12T20:34:49.898Z,8.3
2018-05-12T20:36:50.158Z,8.6
2018-05-12T20:38:50.419Z,8.6
2018-05-12T20:40:49.626Z,8.3
2018-05-12T20:42:49.793Z,8.5
2018-05-12T20:44:49.971Z,8.5
2018-05-12T20:46:50.310Z,8.5
2018-05-12T20:48:49.517Z,8.7
2018-05-12T20:50:49.743Z,8.5
2018-05-12T20:52:50.179Z,8.7
2018-05-12T20:54:50.383Z,8.7
2018-05-12T20:56:49.654Z,8.9
2018-05-12T20:58:49.788Z,8.9
2018-05-12T21:00:49.988Z,9.1
2018-05-12T21:02:50.236Z,8.8
2018-05-12T21:04:49.854Z,8.8
2018-05-12T21:06:50.339Z,10.0
2018-05-12T21:08:49.560Z,10.0
2018-05-12T21:10:49.810Z,9.5
2018-05-12T21:12:50.065Z,11.5
2018-05-12T21:14:50.338Z,10.1
2018-05-12T21:16:49.756Z,10.1
2018-05-12T21:18:50.033Z,9.9
2018-05-12T21:20:50.203Z,10.7
2018-05-12T21:22:50.419Z,10.7
2018-05-12T21:24:49.572Z,10.0
2018-05-12T21:26:49.748Z,10.0
2018-05-12T21:28:49.874Z,10.6
2018-05-12T21:30:49.985Z,10.4
2018-05-12T21:32:50.187Z,11.0
2018-05-12T21:34:49.525Z,10.8
2018-05-12T21:36:49.886Z,10.8
2018-05-12T21:38:50.060Z,10.6
2018-05-12T21:40:50.320Z,10.2
2018-05-12T21:42:49.633Z,11.2
2018-05-12T21:44:49.775Z,11.4
2018-05-12T21:46:49.979Z,11.4
2018-05-12T21:48:50.106Z,11.2
2018-05-12T21:50:50.260Z,11.8
2018-05-12T21:52:50.398Z,11.8
2018-05-12T21:54:49.575Z,11.8
2018-05-12T21:56:49.795Z,11.8
2018-05-12T21:58:49.927Z,12.3
2018-05-12T22:00:50.067Z,11.7
2018-05-12T22:02:50.252Z,12.6
2018-05-12T22:04:49.621Z,12.6
2018-05-12T22:06:49.872Z,12.6
2018-05-12T22:08:50.069Z,12.4
2018-05-12T22:10:50.257Z,12.5
2018-05-12T22:12:49.553Z,12.4
2018-05-12T22:14:49.876Z,12.9
2018-05-12T22:16:50.138Z,12.9
2018-05-12T22:18:50.353Z,12.0
2018-05-12T22:20:49.499Z,12.2
2018-05-12T22:22:49.660Z,12.6
2018-05-12T22:24:49.898Z,12.6
2018-05-12T22:26:50.193Z,12.5
2018-05-12T22:28:50.353Z,12.3
2018-05-12T22:30:49.711Z,12.3
2018-05-12T22:32:49.859Z,12.5
2018-05-12T22:34:50.236Z,11.9
2018-05-12T22:36:49.537Z,12.0
2018-05-12T22:38:49.779Z,12.5
2018-05-12T22:40:49.926Z,12.4
2018-05-12T22:42:50.120Z,12.7
2018-05-12T22:44:50.279Z,12.7
2018-05-12T22:46:49.544Z,12.2
2018-05-12T22:48:49.748Z,13.6
2018-05-12T22:50:49.884Z,13.6
2018-05-12T22:52:50.129Z,12.6
2018-05-12T22:54:49.481Z,13.3
2018-05-12T22:56:50.024Z,13.0
2018-05-12T22:58:50.265Z,13.5
2018-05-12T23:00:49.606Z,14.2
2018-05-12T23:02:49.804Z,14.2
2018-05-12T23:04:50.341Z,13.3
2018-05-12T23:06:49.672Z,13.4
2018-05-12T23:08:49.812Z,14.3
2018-05-12T23:10:50.057Z,14.4
2018-05-12T23:12:50.346Z,15.0
2018-05-12T23:14:49.532Z,15.0
2018-05-12T23:16:49.836Z,14.6
2018-05-12T23:18:50.017Z,14.8
2018-05-12T23:20:50.174Z,15.0
2018-05-12T23:22:50.414Z,15.0
2018-05-12T23:24:49.616Z,14.9
2018-05-12T23:26:50.127Z,15.2
2018-05-12T23:28:50.266Z,15.7
2018-05-12T23:30:50.404Z,15.7
2018-05-12T23:32:49.577Z,15.6
2018-05-12T23:34:49.909Z,16.2
2018-05-12T23:36:50.199Z,15.9
2018-05-12T23:38:50.360Z,15.9
2018-05-12T23:40:49.475Z,16.5
2018-05-12T23:42:49.705Z,16.5
2018-05-12T23:44:49.795Z,16.2
2018-05-12T23:46:50.037Z,16.6
2018-05-12T23:48:50.269Z,16.7
2018-05-12T23:50:50.385Z,16.7
2018-05-12T23:52:49.718Z,17.0
2018-05-12T23:54:49.849Z,16.8
2018-05-12T23:56:50.156Z,16.7
2018-05-12T23:58:50.267Z,16.4
